To NAV CANADA Home Page Login to a new session Search on AWWS site Feedback and Comments Disclaimer Vers la page française équivalente Tips FAQ What's new on the site To the Forecasts and Observations / NOTAM section To "File a Flight Plan" website Publications and other links Update of the User's profile FIC Telephone Numbers My Weather Data Folder Route Weather Data Regional Weather Data Local Weather Data To the Forecasts and Observations / NOTAM section
Request Generated 10/18/2017 at 03:48:25 UTC . Weather information available at that time is displayed.

METAR/TAF

COLD LAKE/GROUP CAPTAIN R.W. MCNAIR/AB    

METAR CYOD 180300Z 29022G30KT 8SM -SHRA OVC020 07/05 A2914 RMK SC8 CIG VRB 15-25 PCPN VRY LGT SLP885=
SPECI CYOD 180235Z 29017G28KT 8SM -SHRA BKN020 OVC040 06/05 A2914 RMK SC5SC3 CVCTV CLD EMBD SLP884=
METAR CYOD 180200Z 28016G31KT 5SM SHRA BKN020 OVC040 06/05 A2912 RMK SC5SC3 PRESRR CVCTV CLD EMBD SLP880=
METAR CYOD 180100Z 28015G24KT 5SM SHRA OVC050 09/08 A2906 RMK SC8 CVCTV CLD EMBD SLP855=

TAF CYOD 180230Z 1803/1824 29030G50KT 6SM -RA BR OVC050 TEMPO
1803/1807 5SM SHRA BR OVC020
FM180700 27020G40KT P6SM SCT020 OVC040
BECMG 1811/1813 28015G25KT SCT040
FM182000 28010KT P6SM FEW030
RMK NXT FCST BY 180600Z=
Your time UTC time
Weather data provided by Environment Canada and NAV CANADA